Рассадник сумчатой русофобии - AntonTsAU (antontsau) wrote,
Рассадник сумчатой русофобии - AntonTsAU
antontsau

Categories:

Хрен меня сегодня без поводка и намордника куда пустили

В смысле полетать. С утра было тихо и хорошо, а как до аэродрома добрался так сразу ПиздецЪ начался - ветер 30 узлов, хорошо хоть вдоль полосы, так что конечно куда там мне без присмотра в такое.

Эта малиновка ни хрена не летит в такой ветер, полный газзз и нос вверх а хрен там, еле-еле высоту удерживает. А потом вжух и наоборот, чтоб не улететь в небеса надо нос вниз и газ совсем убрать, на посадке практически на холостом лететь пришлось - и это против ветра! Все от динамических потоков вверх-вниз, которые дуют чуть ли не быстрее чем этот ероплан вообще способен перемещаться.

Так целый день и дует

SPECI YSBK 020533Z AUTO 26019G31KT 9999 // NCD 33/08 Q0997 RMK

Ну ничего, в следующий раз пустят.

упд все дует и дует, аж свистит!

TTF SPECI YSSY 020639Z 18030G40KT 170V230 9999 FEW018 22/15 Q1000
Tags: Сидней, а как тот мамонт летает, все хреново, лытдыбр
Subscribe

  • Post a new comment

    Error

    Anonymous comments are disabled in this journal

    default userpic

    Your reply will be screened

    Your IP address will be recorded 

  • 4 comments